Time;durP1;ratioP1;P1;durP2;ratioP2;P2;SDS_P1;SDS_P2;PMS_P1;PMS_P2;Temp;Humidity;BMP_temperature;BMP_pressure;BME280_temperature;BME280_humidity;BME280_pressure;Samples;Min_cycle;Max_cycle;Signal;HPM_P1;HPM_P2
2022/12/27 00:00:15;;;;;;;117.30;72.63;;;;;;;2.27;94.66;98336.69;10286592;28;20476;-58
2022/12/27 00:05:14;;;;;;;116.30;71.00;;;;;;;2.34;93.73;98334.44;10273075;28;20050;-57
2022/12/27 00:10:13;;;;;;;102.38;60.83;;;;;;;2.35;93.86;98338.75;10283032;28;20066;-58
2022/12/27 00:15:12;;;;;;;;;;;;;;;2.35;93.73;98337.91;10287991;28;20077;-58
2022/12/27 00:20:11;;;;;;;78.97;49.88;;;;;;;2.34;94.54;98331.88;10286407;28;19971;-58
2022/12/27 00:25:10;;;;;;;69.05;42.53;;;;;;;2.51;94.81;98324.00;10285139;28;20093;-58
2022/12/27 00:30:10;;;;;;;55.28;34.58;;;;;;;2.69;94.95;98326.41;10286099;28;20133;-58
2022/12/27 00:35:09;;;;;;;44.97;27.38;;;;;;;2.87;94.98;98324.56;10287025;28;20519;-58
2022/12/27 00:40:08;;;;;;;57.05;35.00;;;;;;;2.95;94.75;98323.16;10284363;28;20040;-58
2022/12/27 00:45:08;;;;;;;43.10;26.17;;;;;;;3.15;93.93;98321.34;10281020;28;20070;-58
2022/12/27 00:50:07;;;;;;;50.80;31.80;;;;;;;3.15;92.97;98335.88;10286876;28;20073;-58
2022/12/27 00:55:07;;;;;;;;;;;;;;;3.22;92.47;98332.72;10285724;28;20065;-58
2022/12/27 01:00:07;;;;;;;55.45;36.38;;;;;;;3.22;92.58;98332.72;10286834;28;20383;-58
2022/12/27 01:05:06;;;;;;;58.33;36.92;;;;;;;3.22;92.27;98328.47;10292304;28;20053;-58
2022/12/27 01:10:06;;;;;;;46.30;28.08;;;;;;;3.18;91.77;98311.22;10292503;28;20085;-58
2022/12/27 01:15:07;;;;;;;31.98;20.10;;;;;;;3.20;92.04;98324.97;10293266;28;20064;-58
2022/12/27 01:20:06;;;;;;;31.17;19.05;;;;;;;3.29;92.21;98314.19;10291990;28;20053;-58
2022/12/27 01:25:06;;;;;;;30.80;18.20;;;;;;;3.30;92.68;98318.47;10293318;28;20077;-58
2022/12/27 01:30:05;;;;;;;;;;;;;;;3.47;92.36;98313.09;10291474;28;20550;-58
2022/12/27 01:35:04;;;;;;;32.53;18.08;;;;;;;3.62;92.21;98305.94;10293286;28;19955;-58
2022/12/27 01:40:04;;;;;;;29.30;18.65;;;;;;;3.75;91.37;98312.38;10288846;28;20061;-58
2022/12/27 01:45:13;;;;;;;27.02;16.85;;;;;;;3.88;90.69;98305.97;10283970;28;20054;-57
2022/12/27 01:50:31;;;;;;;30.15;17.45;;;;;;;3.94;89.99;98312.19;10287667;28;20068;-58
2022/12/27 01:55:39;;;;;;;26.50;16.63;;;;;;;3.84;90.05;98310.97;10290898;28;20076;-58
2022/12/27 02:00:42;;;;;;;28.10;16.63;;;;;;;3.96;89.61;98319.94;10291717;28;20081;-58
2022/12/27 02:05:41;;;;;;;27.45;15.05;;;;;;;3.97;89.44;98307.16;10283538;28;20734;-58
2022/12/27 02:10:41;;;;;;;27.63;16.83;;;;;;;3.97;89.07;98296.88;10276306;28;20503;-58
2022/12/27 02:15:40;;;;;;;30.40;16.27;;;;;;;3.97;88.46;98301.16;10289191;28;20061;-58
2022/12/27 02:21:07;;;;;;;22.67;12.13;;;;;;;3.94;88.65;98296.78;10291398;28;20103;-58
2022/12/27 02:26:24;;;;;;;19.98;11.18;;;;;;;4.13;88.36;98290.56;10288113;28;20076;-58
2022/12/27 02:31:33;;;;;;;19.65;10.88;;;;;;;4.16;87.71;98282.09;10288504;28;20500;-58
2022/12/27 02:36:35;;;;;;;21.65;13.35;;;;;;;4.30;86.67;98280.84;10290822;28;20074;-58
2022/12/27 02:58:16;;;;;;;17.80;11.27;;;;;;;4.96;83.44;98285.47;10269445;28;20061;-55
2022/12/27 03:03:36;;;;;;;17.27;9.90;;;;;;;4.99;82.93;98290.69;10271145;28;20491;-55
2022/12/27 03:08:49;;;;;;;15.27;10.18;;;;;;;4.92;82.94;98291.31;10269268;28;20085;-55
2022/12/27 03:35:27;;;;;;;16.52;10.50;;;;;;;4.77;83.39;98280.59;10263798;28;20069;-55
2022/12/27 03:43:09;;;;;;;15.77;10.15;;;;;;;4.83;83.18;98288.47;10268084;28;20062;-55
2022/12/27 03:46:32;;;;;;;17.67;10.27;;;;;;;4.76;83.19;98283.97;10257183;28;20076;-55
2022/12/27 03:51:48;;;;;;;16.23;9.32;;;;;;;4.71;84.15;98278.69;10283399;28;20080;-55
2022/12/27 03:56:47;;;;;;;15.60;9.60;;;;;;;4.91;84.03;98285.31;10285769;28;20054;-55
2022/12/27 04:01:46;;;;;;;14.95;9.45;;;;;;;4.97;83.48;98292.38;10285903;28;20069;-55
2022/12/27 04:06:45;;;;;;;17.23;9.98;;;;;;;4.96;83.35;98288.03;10287547;28;20116;-55
2022/12/27 04:38:11;;;;;;;35.05;17.50;;;;;;;5.22;82.39;98300.78;10272475;28;20053;-55
2022/12/27 05:04:22;;;;;;;22.33;12.65;;;;;;;5.33;82.03;98308.00;10290969;28;20069;-56
2022/12/27 05:14:39;;;;;;;26.33;15.85;;;;;;;5.22;83.06;98304.22;10291036;28;19963;-55
2022/12/27 05:19:37;;;;;;;25.25;14.15;;;;;;;5.27;83.06;98299.22;10293390;28;20033;-55
2022/12/27 05:29:54;;;;;;;24.52;16.85;;;;;;;5.36;83.30;98284.03;10292991;28;20515;-55
2022/12/27 05:34:53;;;;;;;27.42;16.52;;;;;;;5.42;83.45;98289.38;10291994;28;20506;-55
2022/12/27 05:39:52;;;;;;;28.73;18.27;;;;;;;5.56;84.29;98289.75;10290914;28;20121;-56
2022/12/27 05:44:51;;;;;;;39.17;24.17;;;;;;;5.86;83.29;98300.00;10312232;28;20040;-55
2022/12/27 05:49:49;;;;;;;14.25;7.55;;;;;;;6.22;84.40;98285.44;10288119;28;20140;-55
2022/12/27 05:54:48;;;;;;;31.08;17.58;;;;;;;7.03;82.04;98283.03;10290022;28;20108;-56
2022/12/27 05:59:47;;;;;;;8.15;4.53;;;;;;;7.77;79.90;98286.25;10287103;28;20045;-58
2022/12/27 06:04:46;;;;;;;7.65;4.15;;;;;;;8.46;76.91;98280.56;10285576;28;20037;-56
2022/12/27 06:09:45;;;;;;;8.05;4.32;;;;;;;9.00;74.26;98280.50;10288797;28;20129;-56
2022/12/27 06:14:44;;;;;;;10.10;5.70;;;;;;;9.28;72.11;98277.44;10288361;28;20073;-56
2022/12/27 06:19:43;;;;;;;9.77;5.63;;;;;;;9.60;70.46;98291.63;10288745;28;20116;-56
2022/12/27 06:24:42;;;;;;;7.53;3.80;;;;;;;9.82;67.81;98291.00;10287814;28;20116;-56
2022/12/27 06:29:41;;;;;;;7.63;4.60;;;;;;;10.20;67.30;98288.78;10287259;28;20042;-56
2022/12/27 06:34:40;;;;;;;10.77;4.90;;;;;;;10.39;65.29;98294.13;10281573;28;20548;-56
2022/12/27 06:39:39;;;;;;;8.80;5.15;;;;;;;10.54;64.46;98283.88;10261126;28;20472;-56
2022/12/27 06:44:38;;;;;;;11.13;6.40;;;;;;;10.68;63.12;98293.47;10287502;28;20076;-56
2022/12/27 06:49:37;;;;;;;7.95;4.75;;;;;;;10.80;61.60;98288.41;10279000;28;20124;-56
2022/12/27 06:54:36;;;;;;;26.65;16.00;;;;;;;10.83;60.70;98280.63;10285435;28;20025;-57
2022/12/27 06:59:35;;;;;;;9.80;5.47;;;;;;;11.03;60.76;98279.06;10284553;28;20118;-57
2022/12/27 07:04:34;;;;;;;8.25;4.53;;;;;;;11.08;60.09;98280.78;10285893;28;20149;-56
2022/12/27 07:09:33;;;;;;;6.07;3.88;;;;;;;11.18;59.70;98290.38;10283472;28;20081;-56
2022/12/27 07:14:32;;;;;;;6.97;3.75;;;;;;;11.31;58.79;98280.91;10284443;28;20029;-56
2022/12/27 07:19:31;;;;;;;12.82;7.30;;;;;;;11.48;58.49;98294.84;10285431;28;20088;-56
2022/12/27 07:24:32;;;;;;;12.63;8.27;;;;;;;11.66;57.78;98291.44;10288682;28;20052;-56
2022/12/27 07:29:31;;;;;;;134.13;60.97;;;;;;;11.86;56.25;98287.16;10283176;28;20812;-56
2022/12/27 07:34:30;;;;;;;39.05;17.92;;;;;;;12.12;56.08;98288.94;10273274;28;20503;-56
2022/12/27 07:39:29;;;;;;;16.48;8.02;;;;;;;12.26;55.39;98273.34;10285456;28;20040;-56
2022/12/27 07:44:28;;;;;;;28.15;12.80;;;;;;;12.33;54.90;98280.31;10284150;28;20104;-56
2022/12/27 07:49:27;;;;;;;25.83;12.05;;;;;;;12.39;54.21;98300.25;10251177;28;20099;-56
2022/12/27 07:54:26;;;;;;;12.60;6.22;;;;;;;12.54;54.29;98292.47;10277443;28;20105;-56
2022/12/27 07:59:26;;;;;;;27.33;13.02;;;;;;;12.57;53.10;98302.88;10281456;28;20120;-57
2022/12/27 08:04:25;;;;;;;39.17;17.35;;;;;;;12.69;53.44;98302.88;10269186;28;20129;-56
2022/12/27 08:09:28;;;;;;;17.33;8.65;;;;;;;12.77;53.57;98302.03;10284684;28;20089;-56
2022/12/27 08:14:27;;;;;;;13.80;7.20;;;;;;;12.80;53.85;98304.59;10283969;28;20129;-56
2022/12/27 08:19:26;;;;;;;8.65;4.85;;;;;;;12.86;53.54;98307.19;10268028;28;20105;-56
2022/12/27 08:24:25;;;;;;;13.40;6.45;;;;;;;12.92;53.36;98307.19;10287929;28;20052;-56
2022/12/27 08:29:24;;;;;;;24.92;14.48;;;;;;;12.97;52.54;98313.25;10291930;28;20577;-56
2022/12/27 08:34:23;;;;;;;23.75;16.92;;;;;;;13.09;52.50;98318.47;10279415;28;20532;-56
2022/12/27 08:39:23;;;;;;;20.17;12.95;;;;;;;13.17;52.28;98309.75;10291161;28;20392;-56
2022/12/27 08:44:22;;;;;;;14.70;8.65;;;;;;;13.27;52.15;98308.84;10275174;28;20979;-56
2022/12/27 08:49:21;;;;;;;29.77;26.55;;;;;;;13.31;51.22;98297.56;10295623;28;20146;-56
2022/12/27 08:54:20;;;;;;;8.20;4.97;;;;;;;13.40;50.83;98305.34;10276361;28;20124;-56
2022/12/27 08:59:20;;;;;;;27.70;19.52;;;;;;;13.46;50.62;98305.31;10279525;28;20069;-57
2022/12/27 09:04:19;;;;;;;31.73;20.73;;;;;;;13.57;50.28;98298.34;10288703;28;20104;-56
2022/12/27 09:09:18;;;;;;;14.10;8.82;;;;;;;13.69;50.58;98283.53;10288084;28;20184;-56
2022/12/27 09:14:17;;;;;;;23.13;13.80;;;;;;;13.75;50.54;98266.09;10289522;28;20137;-57
2022/12/27 09:19:17;;;;;;;13.50;6.55;;;;;;;13.86;49.97;98260.81;10281421;28;20118;-56
2022/12/27 09:24:15;;;;;;;14.95;7.65;;;;;;;13.78;50.48;98233.91;10287334;28;20069;-57
2022/12/27 09:29:14;;;;;;;15.25;8.45;;;;;;;13.93;49.66;98239.00;10289705;28;20117;-57
2022/12/27 09:34:13;;;;;;;8.52;5.18;;;;;;;14.03;49.73;98226.78;10280475;28;20034;-57
2022/12/27 09:39:12;;;;;;;27.27;15.95;;;;;;;14.01;49.60;98214.59;10284917;28;20487;-56
2022/12/27 09:44:41;;;;;;;11.82;7.03;;;;;;;14.19;49.01;98225.81;10286871;28;20232;-56
2022/12/27 09:49:44;;;;;;;17.55;9.70;;;;;;;14.25;48.87;98235.31;10285677;28;20073;-56
2022/12/27 09:54:43;;;;;;;49.10;23.48;;;;;;;14.35;49.29;98236.97;10276529;28;20057;-56
2022/12/27 09:59:45;;;;;;;;;;;;;;;14.40;48.53;98236.91;10265853;28;20030;-56
2022/12/27 10:04:44;;;;;;;61.65;26.27;;;;;;;14.55;48.15;98233.31;10287147;28;20032;-56
2022/12/27 10:10:07;;;;;;;;;;;;;;;14.69;48.13;98226.22;10273469;28;20046;-56
2022/12/27 10:15:21;;;;;;;46.38;23.00;;;;;;;14.96;47.44;98232.06;10286849;28;19971;-56
2022/12/27 10:20:25;;;;;;;63.80;27.10;;;;;;;15.34;47.59;98230.75;10282623;28;20491;-56
2022/12/27 10:25:25;;;;;;;27.55;12.15;;;;;;;15.57;46.38;98213.00;10289457;28;20129;-56
2022/12/27 10:30:24;;;;;;;37.45;30.00;;;;;;;15.59;45.84;98200.75;10272756;28;20148;-56
2022/12/27 10:35:25;;;;;;;35.63;24.17;;;;;;;15.62;46.10;98200.75;10274949;28;20069;-57
2022/12/27 10:40:36;;;;;;;36.97;18.95;;;;;;;15.75;45.49;98211.03;10243751;28;20070;-56
2022/12/27 10:45:38;;;;;;;24.27;13.88;;;;;;;15.84;45.70;98205.69;10283520;28;20180;-57
2022/12/27 10:50:37;;;;;;;26.58;15.20;;;;;;;15.88;45.64;98207.38;10285129;28;20073;-57
2022/12/27 10:55:38;;;;;;;15.25;10.15;;;;;;;15.94;45.97;98202.03;10273456;28;20167;-56
2022/12/27 11:00:37;;;;;;;13.32;9.20;;;;;;;16.05;45.89;98205.34;10284979;28;20073;-56
2022/12/27 11:05:38;;;;;;;;;;;;;;;16.12;45.50;98200.03;10282115;28;20042;-57
2022/12/27 11:10:37;;;;;;;16.40;9.60;;;;;;;16.21;45.55;98210.34;10285639;28;20398;-56
2022/12/27 11:15:39;;;;;;;;;;;;;;;16.20;45.65;98198.13;10285006;28;20515;-57
2022/12/27 11:20:41;;;;;;;67.18;37.85;;;;;;;16.21;45.47;98200.75;10284498;28;19960;-57
2022/12/27 11:25:55;;;;;;;90.85;39.33;;;;;;;16.21;45.28;98195.50;10278513;28;20117;-56
2022/12/27 11:30:57;;;;;;;78.90;32.03;;;;;;;16.20;45.22;98203.38;10265029;28;20069;-57
2022/12/27 11:35:58;;;;;;;15.55;11.55;;;;;;;16.16;45.48;98199.06;10282311;28;20068;-56
2022/12/27 11:41:04;;;;;;;13.23;7.30;;;;;;;16.19;45.16;98218.22;10281052;28;20077;-56
2022/12/27 11:46:12;;;;;;;10.07;4.40;;;;;;;15.86;45.34;98240.56;10279411;28;20088;-56
2022/12/27 11:51:36;;;;;;;7.93;4.10;;;;;;;15.63;47.55;98233.84;10279260;28;20076;-57
2022/12/27 11:56:44;;;;;;;8.98;6.38;;;;;;;15.31;49.33;98236.03;10277500;28;20076;-56
2022/12/27 12:01:42;;;;;;;9.25;5.30;;;;;;;15.04;50.07;98261.59;10282999;28;20495;-57
2022/12/27 12:06:41;;;;;;;;;;;;;;;14.71;51.31;98261.06;10281723;28;20510;-56
2022/12/27 12:11:49;;;;;;;11.63;5.68;;;;;;;14.45;51.80;98265.59;10281799;28;19976;-57
2022/12/27 12:17:18;;;;;;;10.18;6.22;;;;;;;14.28;52.48;98258.78;10280439;28;20747;-57
2022/12/27 12:22:23;;;;;;;13.00;5.45;;;;;;;14.39;52.82;98267.41;10283956;28;20100;-56
2022/12/27 12:27:28;;;;;;;13.30;7.13;;;;;;;14.44;52.94;98272.59;10258899;28;20112;-56
2022/12/27 12:33:06;;;;;;;17.00;13.00;;;;;;;14.60;52.47;98278.53;10279623;28;20487;-56
2022/12/27 12:38:18;;;;;;;11.13;7.97;;;;;;;14.74;52.43;98281.94;10281365;28;20130;-56
2022/12/27 12:43:26;;;;;;;63.83;50.03;;;;;;;14.98;52.33;98296.50;10282463;28;20065;-57
2022/12/27 12:48:33;;;;;;;12.45;8.85;;;;;;;15.11;51.98;98299.88;10279264;28;20125;-56
2022/12/27 12:53:53;;;;;;;15.18;9.45;;;;;;;15.07;52.30;98298.16;10267329;28;20467;-56
2022/12/27 12:59:23;;;;;;;12.57;6.05;;;;;;;14.89;52.95;98308.78;10287063;28;20062;-56
2022/12/27 13:04:31;;;;;;;12.18;7.18;;;;;;;14.65;53.21;98312.47;10289225;28;20068;-56
2022/12/27 13:10:02;;;;;;;9.77;6.80;;;;;;;14.27;53.39;98330.16;10277618;28;20085;-56
2022/12/27 13:15:24;;;;;;;11.30;7.45;;;;;;;14.23;53.50;98330.19;10288356;28;20061;-56
2022/12/27 13:20:42;;;;;;;9.88;6.70;;;;;;;13.99;53.99;98338.13;10270480;28;20831;-56
2022/12/27 13:25:52;;;;;;;9.43;6.78;;;;;;;13.91;53.93;98339.94;10273860;28;20108;-56
2022/12/27 13:31:01;;;;;;;15.55;8.73;;;;;;;13.92;54.29;98357.31;10280270;28;20118;-56
2022/12/27 13:36:04;;;;;;;12.15;7.10;;;;;;;13.72;55.57;98372.16;10278764;28;20081;-56
2022/12/27 13:41:30;;;;;;;10.85;7.63;;;;;;;13.60;55.59;98360.03;10274882;28;20068;-56
2022/12/27 13:46:38;;;;;;;11.13;7.82;;;;;;;13.60;55.62;98367.00;10281144;28;20129;-56
2022/12/27 13:51:46;;;;;;;12.65;8.52;;;;;;;13.61;55.70;98381.78;10268725;28;20073;-56
2022/12/27 13:57:00;;;;;;;16.98;10.38;;;;;;;13.43;55.81;98388.75;10282579;28;20068;-57
2022/12/27 14:02:05;;;;;;;11.57;7.32;;;;;;;13.05;56.68;98392.28;10286252;28;20061;-56
2022/12/27 14:07:28;;;;;;;10.95;7.13;;;;;;;13.04;56.60;98393.13;10276702;28;20185;-56
2022/12/27 14:12:43;;;;;;;8.52;4.70;;;;;;;13.04;56.39;98394.88;10278457;28;20081;-56
2022/12/27 14:18:03;;;;;;;11.50;7.30;;;;;;;13.10;56.42;98392.28;10278621;28;20073;-56
2022/12/27 14:23:01;;;;;;;27.08;19.20;;;;;;;12.90;56.47;98402.69;10282509;28;20057;-56
2022/12/27 14:28:00;;;;;;;12.52;6.95;;;;;;;12.96;56.77;98407.06;10273461;28;20046;-56
2022/12/27 14:33:18;;;;;;;12.75;7.50;;;;;;;13.07;57.08;98397.47;10278790;28;20375;-56
2022/12/27 14:38:32;;;;;;;13.88;9.52;;;;;;;13.12;57.69;98407.03;10272557;28;20196;-56
2022/12/27 14:43:45;;;;;;;14.45;10.32;;;;;;;13.12;57.81;98398.38;10284389;28;20459;-56
2022/12/27 14:48:47;;;;;;;18.23;12.25;;;;;;;13.06;58.40;98398.38;10282930;28;20408;-56
2022/12/27 14:54:14;;;;;;;31.27;19.08;;;;;;;12.99;58.69;98407.91;10287873;28;20490;-56
2022/12/27 14:59:22;;;;;;;18.33;11.57;;;;;;;12.85;58.48;98404.44;10284781;28;20076;-56
2022/12/27 15:04:35;;;;;;;16.35;11.07;;;;;;;12.73;58.63;98408.78;10288818;28;20076;-56
2022/12/27 15:09:36;;;;;;;25.73;16.48;;;;;;;12.59;59.39;98418.31;10275147;28;20129;-56
2022/12/27 15:14:53;;;;;;;23.98;17.77;;;;;;;12.38;60.03;98426.94;10282512;28;20533;-56
2022/12/27 15:19:55;;;;;;;40.70;26.40;;;;;;;12.24;60.35;98426.88;10271177;28;20152;-56
2022/12/27 15:25:17;;;;;;;55.53;32.55;;;;;;;12.13;60.98;98433.75;10278344;28;20514;-56
2022/12/27 15:30:19;;;;;;;60.88;39.20;;;;;;;11.86;61.85;98432.78;10281707;28;20898;-56
2022/12/27 15:35:24;;;;;;;46.72;30.70;;;;;;;11.77;61.65;98424.94;10285022;28;20057;-56
2022/12/27 15:40:32;;;;;;;53.35;32.72;;;;;;;11.72;60.64;98418.84;10283331;28;20099;-56
2022/12/27 15:45:47;;;;;;;38.13;25.45;;;;;;;11.77;61.40;98418.88;10283275;28;20104;-56
2022/12/27 15:51:10;;;;;;;30.00;20.30;;;;;;;11.63;60.85;98427.47;10274334;28;20815;-56
2022/12/27 15:56:29;;;;;;;37.88;25.70;;;;;;;11.58;60.87;98433.50;10284614;28;20081;-56
2022/12/27 16:01:28;;;;;;;38.83;27.95;;;;;;;11.52;61.17;98433.47;10286486;28;20061;-56
2022/12/27 16:06:33;;;;;;;64.85;39.13;;;;;;;11.25;61.63;98435.91;10278080;28;20076;-56
2022/12/27 16:12:06;;;;;;;257.27;99.82;;;;;;;11.07;62.23;98438.34;10247126;28;20090;-56
2022/12/27 16:17:33;;;;;;;154.48;75.05;;;;;;;10.92;62.59;98446.03;10271576;28;20061;-56
2022/12/27 16:22:37;;;;;;;85.47;51.78;;;;;;;10.70;63.41;98460.50;10287437;28;20076;-56
2022/12/27 16:27:36;;;;;;;107.07;70.63;;;;;;;10.48;65.12;98464.59;10255554;28;20484;-56
2022/12/27 16:32:35;;;;;;;112.13;76.88;;;;;;;10.26;65.76;98466.97;10249365;28;20018;-56
2022/12/27 16:37:42;;;;;;;110.57;72.47;;;;;;;10.05;67.73;98483.13;10282800;28;20038;-56
2022/12/27 16:42:46;;;;;;;75.28;50.95;;;;;;;9.81;67.93;98487.97;10294737;28;20077;-56
2022/12/27 16:48:16;;;;;;;104.53;67.32;;;;;;;9.66;69.02;98497.28;10291860;28;20494;-56
2022/12/27 16:53:30;;;;;;;97.97;64.30;;;;;;;9.44;69.69;98505.56;10291657;28;20068;-56
2022/12/27 16:58:29;;;;;;;86.10;58.65;;;;;;;9.25;70.56;98502.66;10293231;28;20079;-56
2022/12/27 17:03:34;;;;;;;112.63;79.22;;;;;;;9.10;70.97;98505.88;10291830;28;20423;-56
2022/12/27 17:08:33;;;;;;;135.07;93.22;;;;;;;8.96;72.00;98511.66;10291556;28;20062;-56
2022/12/27 17:13:49;;;;;;;84.53;58.47;;;;;;;8.83;72.21;98528.66;10293728;28;20037;-56
2022/12/27 17:19:03;;;;;;;87.47;56.45;;;;;;;8.75;72.65;98525.09;10291506;28;20061;-56
2022/12/27 17:24:06;;;;;;;72.28;50.45;;;;;;;8.66;73.46;98530.94;10288644;28;20539;-56
2022/12/27 17:29:35;;;;;;;54.97;35.47;;;;;;;8.51;73.64;98529.81;10276411;28;20050;-56
2022/12/27 17:34:54;;;;;;;42.37;29.13;;;;;;;8.41;74.19;98537.34;10288848;28;20498;-56
2022/12/27 17:39:58;;;;;;;41.83;29.38;;;;;;;8.39;73.61;98539.94;10281496;28;20061;-56
2022/12/27 17:45:19;;;;;;;38.25;26.52;;;;;;;8.37;74.13;98541.59;10274603;28;20071;-56
2022/12/27 17:50:23;;;;;;;41.05;27.45;;;;;;;8.42;73.77;98539.97;10277866;28;20065;-56
2022/12/27 18:00:48;;;;;;;53.63;36.80;;;;;;;8.28;74.55;98551.75;10267780;28;20113;-56
2022/12/27 18:05:48;;;;;;;44.38;28.30;;;;;;;8.16;74.93;98536.00;10284854;28;20453;-56
2022/12/27 18:10:47;;;;;;;78.55;49.25;;;;;;;7.86;75.24;98526.72;10283728;28;20533;-57
2022/12/27 18:15:49;;;;;;;133.25;76.05;;;;;;;7.96;75.61;98558.81;10285604;28;20077;-56
2022/12/27 18:20:58;;;;;;;83.22;54.05;;;;;;;7.84;76.19;98556.81;10287122;28;20077;-56
2022/12/27 18:26:10;;;;;;;78.83;50.93;;;;;;;7.73;76.34;98561.72;10286295;28;20082;-56
2022/12/27 18:31:30;;;;;;;93.88;63.60;;;;;;;7.63;77.01;98564.94;10287380;28;20080;-56
2022/12/27 18:36:46;;;;;;;86.10;59.50;;;;;;;7.58;77.72;98575.16;10286780;28;20065;-56
2022/12/27 18:41:48;;;;;;;96.22;62.80;;;;;;;7.51;77.70;98577.56;10287121;28;20542;-56
2022/12/27 18:46:50;;;;;;;119.13;73.30;;;;;;;7.43;78.01;98592.91;10260690;28;20064;-56
2022/12/27 18:51:50;;;;;;;105.95;71.50;;;;;;;7.33;79.34;98606.34;10280268;28;20053;-56
2022/12/27 18:56:52;;;;;;;93.05;60.03;;;;;;;7.21;79.56;98604.34;10279813;28;20108;-56
2022/12/27 19:01:52;;;;;;;105.13;68.72;;;;;;;7.14;80.36;98602.44;10285033;28;20065;-56
2022/12/27 19:07:10;;;;;;;114.43;74.97;;;;;;;7.10;79.83;98610.91;10276783;28;20070;-68
2022/12/27 19:12:33;;;;;;;145.18;98.65;;;;;;;7.02;80.58;98605.56;10263496;28;20088;-56
2022/12/27 19:17:32;;;;;;;230.93;144.68;;;;;;;7.00;80.92;98596.91;10283421;28;20525;-56
2022/12/27 19:22:36;;;;;;;221.52;141.15;;;;;;;6.99;80.72;98602.91;10285685;28;20467;-56
2022/12/27 19:27:35;;;;;;;193.93;126.88;;;;;;;7.01;80.28;98611.56;10275125;28;20117;-56
2022/12/27 19:32:34;;;;;;;232.07;149.57;;;;;;;6.95;80.45;98629.44;10277478;28;20036;-56
2022/12/27 19:37:34;;;;;;;212.93;139.65;;;;;;;6.86;80.94;98629.19;10271410;28;20122;-56
2022/12/27 19:42:33;;;;;;;204.02;130.65;;;;;;;6.83;80.84;98635.16;10261970;28;20129;-56
2022/12/27 19:47:34;;;;;;;237.27;139.77;;;;;;;6.82;80.62;98633.41;10268535;28;20121;-56
2022/12/27 19:52:33;;;;;;;209.50;135.48;;;;;;;6.61;81.06;98636.25;10285389;28;20072;-56
2022/12/27 19:57:32;;;;;;;118.05;80.85;;;;;;;6.60;80.79;98631.91;10282946;28;20034;-56
2022/12/27 20:02:31;;;;;;;78.15;54.85;;;;;;;6.61;80.96;98631.09;10282949;28;20065;-56
2022/12/27 20:07:30;;;;;;;79.22;52.80;;;;;;;6.65;79.61;98638.06;10281114;28;20113;-56
2022/12/27 20:12:29;;;;;;;105.07;64.85;;;;;;;6.62;80.02;98645.72;10283881;28;20057;-56
2022/12/27 20:17:31;;;;;;;83.55;55.60;;;;;;;6.56;79.18;98666.16;10276618;28;20018;-56
2022/12/27 20:22:30;;;;;;;188.70;118.20;;;;;;;6.22;80.54;98664.28;10271492;28;20117;-56
2022/12/27 20:27:29;;;;;;;164.45;106.05;;;;;;;6.14;81.35;98659.78;10249055;28;20034;-56
2022/12/27 20:32:28;;;;;;;89.85;60.97;;;;;;;5.86;82.39;98663.19;10255297;28;20483;-56
2022/12/27 20:37:27;;;;;;;121.43;82.18;;;;;;;5.80;82.70;98675.84;10282065;28;20100;-56
2022/12/27 20:42:26;;;;;;;140.57;91.20;;;;;;;5.78;82.69;98686.94;10279564;28;20040;-56
2022/12/27 20:47:25;;;;;;;;;;;;;;;5.76;82.10;98694.59;10243461;28;20656;-56
2022/12/27 20:52:24;;;;;;;175.75;110.55;;;;;;;5.75;83.06;98692.88;10271631;28;20449;-56
2022/12/27 20:57:23;;;;;;;167.63;106.65;;;;;;;5.73;83.67;98704.81;10282880;28;20077;-56
2022/12/27 21:02:22;;;;;;;176.30;116.43;;;;;;;5.69;83.54;98696.09;10281493;28;20092;-56
2022/12/27 21:07:21;;;;;;;186.70;123.10;;;;;;;5.70;83.93;98697.00;10278886;28;20034;-56
2022/12/27 21:12:20;;;;;;;194.40;125.40;;;;;;;5.61;83.82;98699.25;10283265;28;20077;-56
2022/12/27 21:17:20;;;;;;;187.90;126.32;;;;;;;5.48;84.36;98705.66;10283029;28;20056;-56
2022/12/27 21:22:19;;;;;;;147.77;99.88;;;;;;;5.48;84.83;98713.41;10288949;28;20046;-56
2022/12/27 21:27:18;;;;;;;107.70;68.18;;;;;;;5.33;84.94;98716.31;10288475;28;20499;-56
2022/12/27 21:32:16;;;;;;;131.73;85.47;;;;;;;5.24;84.57;98711.72;10287871;28;20109;-56
2022/12/27 21:37:15;;;;;;;145.18;90.90;;;;;;;5.24;84.93;98724.59;10287898;28;20063;-56
2022/12/27 21:42:14;;;;;;;225.35;121.78;;;;;;;5.02;86.07;98722.06;10288836;28;20115;-56
2022/12/27 21:47:13;;;;;;;100.45;62.80;;;;;;;5.09;85.50;98717.22;10287010;28;20037;-56
2022/12/27 21:52:12;;;;;;;225.48;122.93;;;;;;;5.15;85.42;98725.97;10290098;28;20037;-56
2022/12/27 21:57:11;;;;;;;92.35;60.60;;;;;;;5.16;85.21;98731.16;10287976;28;20452;-56
2022/12/27 22:02:10;;;;;;;96.07;58.90;;;;;;;5.16;85.22;98733.75;10288704;28;20065;-56
2022/12/27 22:07:09;;;;;;;97.85;66.28;;;;;;;5.19;85.19;98735.56;10280878;28;20030;-57
2022/12/27 22:12:08;;;;;;;105.50;68.55;;;;;;;5.24;85.17;98729.72;10285287;28;20046;-56
2022/12/27 22:17:07;;;;;;;85.18;55.92;;;;;;;5.20;85.61;98739.84;10285063;28;20518;-56
2022/12/27 22:22:06;;;;;;;86.05;57.15;;;;;;;5.23;85.36;98738.28;10286242;28;20029;-56
2022/12/27 22:27:05;;;;;;;89.47;57.72;;;;;;;5.22;85.61;98735.66;10286229;28;20032;-56
2022/12/27 22:32:04;;;;;;;92.40;55.05;;;;;;;5.27;85.27;98729.84;10283929;28;20045;-56
2022/12/27 22:37:03;;;;;;;102.05;62.50;;;;;;;5.29;85.56;98729.91;10285916;28;20122;-56
2022/12/27 22:42:02;;;;;;;95.63;60.55;;;;;;;5.28;85.63;98738.44;10267748;28;20121;-56
2022/12/27 22:47:01;;;;;;;89.05;58.50;;;;;;;5.33;85.46;98745.50;10275411;28;20673;-57
2022/12/27 22:52:00;;;;;;;112.03;69.50;;;;;;;5.37;85.08;98731.06;10279657;28;20044;-56
2022/12/27 22:56:59;;;;;;;109.25;70.20;;;;;;;5.40;85.13;98728.59;10282392;28;20041;-56
2022/12/27 23:01:58;;;;;;;86.45;56.92;;;;;;;5.37;85.01;98733.63;10270364;28;20041;-56
2022/12/27 23:07:00;;;;;;;85.40;53.47;;;;;;;5.34;85.25;98731.84;10266691;28;20030;-56
2022/12/27 23:11:59;;;;;;;169.27;99.70;;;;;;;5.35;85.15;98727.56;10278370;28;20069;-56
2022/12/27 23:16:58;;;;;;;106.00;64.60;;;;;;;5.39;85.13;98719.13;10280547;28;20117;-56
2022/12/27 23:21:57;;;;;;;91.32;57.75;;;;;;;5.38;84.89;98717.34;10280527;28;20128;-56
2022/12/27 23:26:56;;;;;;;102.05;64.43;;;;;;;5.33;85.54;98706.91;10271343;28;20030;-56
2022/12/27 23:31:55;;;;;;;80.68;51.78;;;;;;;5.38;85.48;98721.63;10283627;28;20069;-56
2022/12/27 23:36:55;;;;;;;71.38;47.03;;;;;;;5.41;84.88;98730.31;10285226;28;20108;-56
2022/12/27 23:41:54;;;;;;;63.75;42.63;;;;;;;5.46;84.46;98721.09;10284805;28;20057;-56
2022/12/27 23:46:53;;;;;;;84.70;53.50;;;;;;;5.50;84.18;98717.78;10283664;28;20065;-56
2022/12/27 23:51:52;;;;;;;110.30;67.38;;;;;;;5.55;83.88;98718.84;10281904;28;20057;-56
2022/12/27 23:56:51;;;;;;;129.68;83.40;;;;;;;5.57;84.40;98718.00;10283564;28;20459;-56
